createdAt,value
2018-07-07T00:00:37.661Z,8.00
2018-07-07T00:02:15.481Z,7.50
2018-07-07T00:03:53.221Z,8.75
2018-07-07T00:05:29.841Z,8.00
2018-07-07T00:07:06.718Z,8.00
2018-07-07T00:08:45.872Z,8.25
2018-07-07T00:10:25.094Z,7.50
2018-07-07T00:12:02.514Z,8.00
2018-07-07T00:13:40.446Z,8.25
2018-07-07T00:15:20.399Z,7.50
2018-07-07T00:16:58.040Z,7.50
2018-07-07T00:18:36.378Z,8.25
2018-07-07T00:20:14.835Z,8.00
2018-07-07T00:21:53.353Z,7.25
2018-07-07T00:23:32.234Z,6.50
2018-07-07T00:25:16.285Z,7.25
2018-07-07T00:26:54.229Z,7.75
2018-07-07T00:28:31.425Z,7.75
2018-07-07T00:30:10.407Z,7.25
2018-07-07T00:31:48.523Z,5.75
2018-07-07T00:33:24.971Z,6.75
2018-07-07T00:35:02.180Z,7.00
2018-07-07T00:36:39.101Z,6.25
2018-07-07T00:38:15.644Z,7.00
2018-07-07T00:39:52.400Z,6.00
2018-07-07T00:41:28.900Z,7.00
2018-07-07T00:43:07.288Z,7.50
2018-07-07T00:44:47.590Z,6.00
2018-07-07T00:46:25.233Z,7.50
2018-07-07T00:48:01.922Z,6.75
2018-07-07T00:49:38.305Z,6.25
2018-07-07T00:51:16.476Z,6.75
2018-07-07T00:52:55.588Z,7.25
2018-07-07T00:54:32.592Z,5.75
2018-07-07T00:56:10.787Z,6.25
2018-07-07T00:57:48.810Z,5.50
2018-07-07T00:59:27.203Z,7.00
2018-07-07T01:01:05.629Z,5.00
2018-07-07T01:02:44.112Z,6.00
2018-07-07T01:04:22.291Z,6.00
2018-07-07T01:06:01.386Z,5.00
2018-07-07T01:07:38.846Z,6.75
2018-07-07T01:09:17.826Z,5.25
2018-07-07T01:10:54.679Z,5.00
2018-07-07T01:12:31.421Z,5.75
2018-07-07T01:14:07.812Z,5.00
2018-07-07T01:15:45.990Z,5.75
2018-07-07T01:17:23.655Z,5.00
2018-07-07T01:19:02.021Z,5.50
2018-07-07T01:20:38.963Z,5.00
2018-07-07T01:22:18.169Z,4.00
2018-07-07T01:23:55.890Z,5.00
2018-07-07T01:25:34.632Z,5.00
2018-07-07T01:27:11.275Z,4.00
2018-07-07T01:28:48.222Z,5.25
2018-07-07T01:30:28.406Z,4.00
2018-07-07T01:32:08.261Z,3.75
2018-07-07T01:33:48.468Z,3.00
2018-07-07T01:35:28.789Z,4.25
2018-07-07T01:37:05.769Z,4.00
2018-07-07T01:38:42.411Z,3.75
2018-07-07T01:40:20.128Z,4.25
2018-07-07T01:41:57.284Z,4.50
2018-07-07T01:43:42.353Z,3.75
2018-07-07T01:45:21.124Z,3.75
2018-07-07T01:46:57.837Z,3.00
2018-07-07T01:48:35.112Z,3.50
2018-07-07T01:50:12.671Z,3.00
2018-07-07T01:51:49.786Z,4.75
2018-07-07T01:53:27.716Z,2.75
2018-07-07T01:55:05.717Z,4.00
2018-07-07T01:56:42.207Z,4.00
2018-07-07T01:58:18.557Z,3.75
2018-07-07T01:59:55.012Z,3.25
2018-07-07T02:01:32.356Z,2.25
2018-07-07T02:03:12.339Z,3.00
2018-07-07T02:04:53.151Z,3.00
2018-07-07T02:06:29.854Z,4.00
2018-07-07T02:08:08.258Z,3.00
2018-07-07T02:09:47.064Z,3.50
2018-07-07T02:11:23.826Z,2.75
2018-07-07T02:13:01.382Z,3.00
2018-07-07T02:14:38.481Z,3.75
2018-07-07T02:16:16.431Z,2.75
2018-07-07T02:17:53.452Z,3.00
2018-07-07T02:19:29.896Z,3.75
2018-07-07T02:21:06.409Z,3.75
2018-07-07T02:22:43.618Z,2.75
2018-07-07T02:24:22.080Z,2.75
2018-07-07T02:25:58.479Z,2.25
2018-07-07T02:27:34.967Z,3.50
2018-07-07T02:29:11.758Z,2.00
2018-07-07T02:30:48.389Z,2.75
2018-07-07T02:32:24.879Z,1.25
2018-07-07T02:34:01.356Z,2.75
2018-07-07T02:35:38.014Z,2.00
2018-07-07T02:37:14.359Z,1.75
2018-07-07T02:38:51.657Z,2.50
2018-07-07T02:40:28.805Z,2.00
2018-07-07T02:42:05.447Z,3.25
2018-07-07T02:43:43.642Z,2.25
2018-07-07T02:45:21.146Z,3.00
2018-07-07T02:46:57.946Z,2.00
2018-07-07T02:48:34.325Z,3.00
2018-07-07T02:50:11.595Z,1.25
2018-07-07T02:51:47.934Z,2.00
2018-07-07T02:53:25.081Z,2.00
2018-07-07T02:55:01.339Z,2.00
2018-07-07T02:56:37.702Z,2.00
2018-07-07T02:58:14.164Z,1.50
2018-07-07T02:59:50.918Z,2.25
2018-07-07T03:01:28.267Z,2.25
2018-07-07T03:03:05.615Z,2.00
2018-07-07T03:04:42.007Z,2.25
2018-07-07T03:06:18.923Z,2.00
2018-07-07T03:07:55.400Z,2.00
2018-07-07T03:09:32.061Z,2.25
2018-07-07T03:11:08.461Z,2.00
2018-07-07T03:12:46.572Z,3.75
2018-07-07T03:14:23.206Z,3.00
2018-07-07T03:16:00.094Z,1.50
2018-07-07T03:17:38.332Z,2.50
2018-07-07T03:19:16.376Z,1.50
2018-07-07T03:20:53.905Z,2.00
2018-07-07T03:22:32.138Z,2.25
2018-07-07T03:24:09.289Z,3.00
2018-07-07T03:25:47.767Z,2.00
2018-07-07T03:27:24.168Z,2.00
2018-07-07T03:29:01.506Z,2.50
2018-07-07T03:30:40.296Z,1.00
2018-07-07T03:32:17.092Z,3.00
2018-07-07T03:33:53.473Z,1.75
2018-07-07T03:35:29.866Z,2.50
2018-07-07T03:37:06.580Z,2.25
2018-07-07T03:38:43.264Z,2.25
2018-07-07T03:40:19.604Z,2.50
2018-07-07T03:41:56.072Z,2.00
2018-07-07T03:43:32.440Z,2.00
2018-07-07T03:45:09.673Z,2.00
2018-07-07T03:46:47.359Z,2.75
2018-07-07T03:48:24.498Z,2.75
2018-07-07T03:50:00.891Z,2.50
2018-07-07T03:51:37.837Z,2.25
2018-07-07T03:53:14.212Z,2.00
2018-07-07T03:54:50.628Z,2.00
2018-07-07T03:56:26.895Z,3.00
2018-07-07T03:58:03.690Z,2.75
2018-07-07T03:59:40.202Z,2.00
2018-07-07T04:01:18.037Z,1.00
2018-07-07T04:02:54.625Z,2.25
2018-07-07T04:04:30.938Z,2.00
2018-07-07T04:06:08.109Z,3.00
2018-07-07T04:07:44.440Z,2.00
2018-07-07T04:09:23.335Z,2.25
2018-07-07T04:11:01.084Z,1.75
2018-07-07T04:12:37.515Z,2.00
2018-07-07T04:14:14.011Z,3.75
2018-07-07T04:15:51.153Z,2.50
2018-07-07T04:17:30.148Z,2.00
2018-07-07T04:19:06.300Z,2.00
2018-07-07T04:20:42.770Z,1.25
2018-07-07T04:22:19.513Z,2.75
2018-07-07T04:23:56.465Z,2.75
2018-07-07T04:25:33.216Z,2.00
2018-07-07T04:27:10.761Z,2.00
2018-07-07T04:28:47.645Z,2.75
2018-07-07T04:30:24.350Z,2.00
2018-07-07T04:32:01.486Z,2.00
2018-07-07T04:33:39.582Z,2.25
2018-07-07T04:35:16.419Z,2.50
2018-07-07T04:36:53.402Z,2.00
2018-07-07T04:38:30.738Z,2.00
2018-07-07T04:40:07.425Z,1.00
2018-07-07T04:41:50.212Z,1.50
2018-07-07T04:43:27.010Z,4.00
2018-07-07T04:45:05.789Z,2.00
2018-07-07T04:46:42.823Z,2.00
2018-07-07T04:48:21.088Z,2.00
2018-07-07T04:49:58.763Z,2.00
2018-07-07T04:51:35.479Z,1.50
2018-07-07T04:53:13.170Z,3.00
2018-07-07T04:54:50.242Z,2.00
2018-07-07T04:56:27.706Z,2.00
2018-07-07T04:58:05.961Z,2.00
2018-07-07T04:59:43.176Z,1.75
2018-07-07T05:01:21.506Z,1.75
2018-07-07T05:02:58.796Z,2.00
2018-07-07T05:04:36.889Z,1.75
2018-07-07T05:06:13.537Z,2.00
2018-07-07T05:07:50.334Z,3.00
2018-07-07T05:09:38.600Z,2.50
2018-07-07T05:11:17.573Z,2.00
2018-07-07T05:12:54.770Z,2.25
2018-07-07T05:14:31.107Z,2.00
2018-07-07T05:16:11.202Z,2.00
2018-07-07T05:17:47.577Z,1.00
2018-07-07T05:19:26.601Z,2.00
2018-07-07T05:21:05.380Z,2.25
2018-07-07T05:22:43.066Z,2.50
2018-07-07T05:24:22.548Z,2.00
2018-07-07T05:26:01.825Z,3.00
2018-07-07T05:27:42.434Z,2.00
2018-07-07T05:29:20.938Z,2.00
2018-07-07T05:30:57.443Z,2.00
2018-07-07T05:32:38.353Z,3.00
2018-07-07T05:34:19.189Z,2.00
2018-07-07T05:35:58.841Z,2.00
2018-07-07T05:37:35.832Z,2.50
2018-07-07T05:39:14.976Z,1.75
2018-07-07T05:40:55.627Z,2.00
2018-07-07T05:42:34.607Z,2.50
2018-07-07T05:44:11.161Z,2.00
2018-07-07T05:45:49.601Z,3.00
2018-07-07T05:47:26.054Z,2.25
2018-07-07T05:49:04.666Z,2.00
2018-07-07T05:50:41.042Z,2.50
2018-07-07T05:52:18.137Z,1.00
2018-07-07T05:53:54.445Z,2.00
2018-07-07T05:55:31.722Z,2.00
2018-07-07T05:57:08.649Z,1.75
2018-07-07T05:58:45.364Z,1.00
2018-07-07T06:00:22.875Z,2.00
2018-07-07T06:02:03.600Z,2.00
2018-07-07T06:03:40.442Z,1.00
2018-07-07T06:05:16.852Z,3.00
2018-07-07T06:06:54.175Z,1.00
2018-07-07T06:08:32.389Z,2.00
2018-07-07T06:10:10.814Z,2.00
2018-07-07T06:11:47.866Z,1.50
2018-07-07T06:13:26.522Z,2.25
2018-07-07T06:15:05.699Z,2.75
2018-07-07T06:16:44.497Z,2.00
2018-07-07T06:18:22.750Z,3.00
2018-07-07T06:20:00.318Z,2.00
2018-07-07T06:21:37.908Z,1.00
2018-07-07T06:23:16.066Z,1.50
2018-07-07T06:24:53.251Z,1.25
2018-07-07T06:26:29.845Z,2.00
2018-07-07T06:28:07.728Z,1.00
2018-07-07T06:29:44.545Z,1.25
2018-07-07T06:31:22.457Z,1.50
2018-07-07T06:33:00.703Z,1.00
2018-07-07T06:34:38.203Z,1.00
2018-07-07T06:36:14.754Z,2.00
2018-07-07T06:37:52.834Z,2.00
2018-07-07T06:39:30.352Z,2.00
2018-07-07T06:41:08.674Z,1.00
2018-07-07T06:42:45.483Z,2.00
2018-07-07T06:44:29.404Z,2.00
2018-07-07T06:46:08.228Z,1.75
2018-07-07T06:47:45.881Z,1.75
2018-07-07T06:49:26.655Z,1.00
2018-07-07T06:51:12.928Z,1.25
2018-07-07T06:54:32.258Z,2.25
2018-07-07T06:56:08.466Z,2.00
2018-07-07T06:57:45.809Z,1.00
2018-07-07T06:59:22.643Z,1.50
2018-07-07T07:00:59.544Z,1.00
2018-07-07T07:02:36.115Z,1.00
2018-07-07T07:04:14.241Z,0.00
2018-07-07T07:05:50.906Z,1.00
2018-07-07T07:07:27.191Z,1.00
2018-07-07T07:09:03.672Z,0.75
2018-07-07T07:10:40.695Z,0.50
2018-07-07T07:12:18.630Z,1.00
2018-07-07T07:13:55.555Z,1.00
2018-07-07T07:15:33.198Z,1.00
2018-07-07T07:17:09.683Z,1.00
2018-07-07T07:18:46.245Z,0.00
2018-07-07T07:20:22.670Z,1.00
2018-07-07T07:22:00.662Z,1.00
2018-07-07T07:23:36.855Z,0.50
2018-07-07T07:25:14.735Z,0.00
2018-07-07T07:26:51.234Z,0.00
2018-07-07T07:28:28.803Z,0.50
2018-07-07T07:30:05.194Z,0.00
2018-07-07T07:31:41.718Z,0.00
2018-07-07T07:33:18.086Z,0.00
2018-07-07T07:34:54.509Z,0.00
2018-07-07T07:36:41.601Z,0.00
2018-07-07T07:38:18.370Z,0.00
2018-07-07T07:39:55.309Z,0.00
2018-07-07T07:41:32.739Z,2.00
2018-07-07T07:43:10.053Z,0.50
2018-07-07T07:44:47.638Z,1.00
2018-07-07T07:46:26.583Z,0.25
2018-07-07T07:48:03.109Z,1.50
2018-07-07T07:49:39.524Z,1.00
2018-07-07T07:51:16.963Z,1.00
2018-07-07T07:52:57.899Z,0.25
2018-07-07T07:54:34.160Z,1.00
2018-07-07T07:56:11.124Z,1.00
2018-07-07T07:57:48.631Z,1.00
2018-07-07T07:59:25.005Z,1.00
2018-07-07T08:01:01.515Z,1.00
2018-07-07T08:02:37.811Z,1.00
2018-07-07T08:04:15.513Z,0.00
2018-07-07T08:05:53.660Z,1.00
2018-07-07T08:07:30.616Z,0.75
2018-07-07T08:09:07.286Z,0.75
2018-07-07T08:10:45.866Z,0.00
2018-07-07T08:12:23.274Z,0.25
2018-07-07T08:14:00.466Z,1.00
2018-07-07T08:15:37.268Z,1.00
2018-07-07T08:17:14.439Z,1.00
2018-07-07T08:18:50.710Z,1.50
2018-07-07T08:20:28.111Z,0.75
2018-07-07T08:22:05.471Z,1.00
2018-07-07T08:23:42.828Z,1.25
2018-07-07T08:25:21.302Z,0.25
2018-07-07T08:26:58.373Z,1.00
2018-07-07T08:28:34.748Z,1.00
2018-07-07T08:30:11.404Z,0.00
2018-07-07T08:31:47.812Z,1.00
2018-07-07T08:33:24.343Z,1.00
2018-07-07T08:35:00.699Z,0.50
2018-07-07T08:36:38.659Z,0.50
2018-07-07T08:38:17.548Z,0.75
2018-07-07T08:39:55.524Z,0.75
2018-07-07T08:41:32.331Z,1.00
2018-07-07T08:43:09.461Z,1.00
2018-07-07T08:44:46.712Z,1.25
2018-07-07T08:46:25.736Z,1.25
2018-07-07T08:48:02.316Z,1.00
2018-07-07T08:49:38.973Z,1.00
2018-07-07T08:51:15.262Z,1.00
2018-07-07T08:52:51.791Z,2.00
2018-07-07T08:54:30.373Z,1.75
2018-07-07T08:56:07.196Z,2.00
2018-07-07T08:57:45.317Z,2.25
2018-07-07T08:59:22.638Z,0.00
2018-07-07T09:00:59.916Z,2.00
2018-07-07T09:02:36.587Z,1.00
2018-07-07T09:04:12.988Z,0.50
2018-07-07T09:05:49.986Z,2.00
2018-07-07T09:07:27.369Z,1.25
2018-07-07T09:09:05.515Z,1.75
2018-07-07T09:10:42.046Z,2.00
2018-07-07T09:12:18.442Z,2.00
2018-07-07T09:13:55.478Z,6.50
2018-07-07T09:15:32.463Z,2.50
2018-07-07T09:17:08.859Z,4.50
2018-07-07T09:18:45.167Z,2.00
2018-07-07T09:20:21.579Z,1.00
2018-07-07T09:22:03.140Z,12.00
2018-07-07T09:23:44.631Z,1.50
2018-07-07T09:25:21.780Z,1.00
2018-07-07T09:26:59.749Z,3.75
2018-07-07T09:28:36.519Z,2.00
2018-07-07T09:30:15.374Z,2.00
2018-07-07T09:31:51.760Z,2.25
2018-07-07T09:33:28.592Z,2.75
2018-07-07T09:35:06.388Z,3.00
2018-07-07T09:36:43.525Z,2.00
2018-07-07T09:38:21.529Z,3.00
2018-07-07T09:39:59.915Z,3.00
2018-07-07T09:41:38.272Z,3.25
2018-07-07T09:43:18.555Z,3.00
2018-07-07T09:44:57.190Z,3.00
2018-07-07T09:46:36.400Z,4.50
2018-07-07T09:48:14.759Z,4.00
2018-07-07T09:49:52.507Z,2.75
2018-07-07T09:51:30.951Z,2.25
2018-07-07T09:53:11.020Z,2.75
2018-07-07T09:54:50.806Z,3.50
2018-07-07T09:56:30.588Z,3.00
2018-07-07T09:58:13.264Z,2.25
2018-07-07T09:59:52.733Z,3.00
2018-07-07T10:01:35.853Z,2.75
2018-07-07T10:03:15.899Z,2.00
2018-07-07T10:04:54.542Z,2.75
2018-07-07T10:06:34.677Z,3.00
2018-07-07T10:08:15.564Z,3.75
2018-07-07T10:09:53.427Z,3.50
2018-07-07T10:11:31.689Z,3.00
2018-07-07T10:13:08.950Z,3.00
2018-07-07T10:14:48.325Z,3.50
2018-07-07T10:16:26.603Z,3.50
2018-07-07T10:18:04.103Z,3.00
2018-07-07T10:19:40.363Z,3.00
2018-07-07T10:21:19.926Z,2.50
2018-07-07T10:22:56.746Z,4.75
2018-07-07T10:24:35.683Z,3.00
2018-07-07T10:26:17.659Z,3.25
2018-07-07T10:27:57.971Z,3.00
2018-07-07T10:29:35.671Z,2.50
2018-07-07T10:31:14.584Z,3.00
2018-07-07T10:32:58.071Z,4.00
2018-07-07T10:34:39.571Z,3.00
2018-07-07T10:36:21.196Z,4.00
2018-07-07T10:38:03.441Z,4.00
2018-07-07T10:39:41.279Z,3.25
2018-07-07T10:41:37.693Z,5.00
2018-07-07T10:43:21.424Z,4.00
2018-07-07T10:45:01.784Z,4.75
2018-07-07T10:46:39.671Z,4.50
2018-07-07T10:48:18.030Z,5.00
2018-07-07T10:50:01.428Z,5.00
2018-07-07T10:51:40.336Z,4.00
2018-07-07T10:53:19.180Z,4.25
2018-07-07T10:54:57.225Z,5.75
2018-07-07T10:56:34.600Z,4.00
2018-07-07T10:58:13.661Z,5.50
2018-07-07T10:59:51.293Z,4.00
2018-07-07T11:01:30.526Z,5.00
2018-07-07T11:03:08.045Z,5.00
2018-07-07T11:04:45.184Z,4.00
2018-07-07T11:06:24.358Z,4.00
2018-07-07T11:08:00.644Z,4.25
2018-07-07T11:09:38.596Z,4.00
2018-07-07T11:11:15.808Z,5.00
2018-07-07T11:12:52.276Z,4.00
2018-07-07T11:14:29.423Z,5.00
2018-07-07T11:16:06.627Z,4.25
2018-07-07T11:17:42.956Z,4.50
2018-07-07T11:19:20.255Z,4.50
2018-07-07T11:20:56.595Z,4.25
2018-07-07T11:22:34.346Z,4.25
2018-07-07T11:24:11.373Z,4.00
2018-07-07T11:25:47.752Z,4.50
2018-07-07T11:27:25.276Z,4.00
2018-07-07T11:29:03.427Z,4.75
2018-07-07T11:30:41.487Z,4.25
2018-07-07T11:32:18.241Z,3.00
2018-07-07T11:33:57.276Z,4.25
2018-07-07T11:35:33.619Z,4.00
2018-07-07T11:37:13.397Z,3.50
2018-07-07T11:38:50.547Z,3.50
2018-07-07T11:40:31.016Z,3.75
2018-07-07T11:42:12.341Z,4.00
2018-07-07T11:43:55.975Z,3.00
2018-07-07T11:45:36.025Z,4.00
2018-07-07T11:47:13.247Z,3.25
2018-07-07T11:48:57.809Z,2.00
2018-07-07T11:50:36.896Z,4.00
2018-07-07T11:52:13.315Z,3.00
2018-07-07T11:53:51.645Z,3.00
2018-07-07T11:55:29.210Z,3.00
2018-07-07T11:57:07.649Z,3.25
2018-07-07T11:58:44.700Z,3.75
2018-07-07T12:00:27.271Z,4.00
2018-07-07T12:02:09.690Z,4.00
2018-07-07T12:03:46.025Z,4.00
2018-07-07T12:05:22.554Z,6.00
2018-07-07T12:07:00.532Z,5.00
2018-07-07T12:08:38.233Z,4.75
2018-07-07T12:10:18.642Z,3.00
2018-07-07T12:11:55.664Z,3.00
2018-07-07T12:13:34.631Z,2.75
2018-07-07T12:15:14.569Z,2.00
2018-07-07T12:16:52.360Z,3.00
2018-07-07T12:18:31.534Z,3.75
2018-07-07T12:20:09.687Z,4.50
2018-07-07T12:21:46.511Z,5.00
2018-07-07T12:25:03.933Z,3.50
2018-07-07T12:26:43.341Z,4.75
2018-07-07T12:28:25.597Z,3.00
2018-07-07T12:30:03.464Z,3.00
2018-07-07T12:31:42.201Z,3.00
2018-07-07T12:33:18.699Z,2.75
2018-07-07T12:34:56.983Z,16.00
2018-07-07T12:36:38.448Z,4.00
2018-07-07T12:38:16.554Z,5.00
2018-07-07T12:39:56.496Z,4.00
2018-07-07T12:41:36.167Z,3.25
2018-07-07T12:43:14.249Z,3.75
2018-07-07T12:44:53.014Z,3.75
2018-07-07T12:46:30.390Z,4.00
2018-07-07T12:48:10.311Z,3.25
2018-07-07T12:49:50.322Z,2.00
2018-07-07T12:51:33.720Z,3.50
2018-07-07T12:53:15.699Z,2.75
2018-07-07T12:54:53.784Z,2.00
2018-07-07T12:56:32.579Z,2.25
2018-07-07T12:58:10.530Z,2.50
2018-07-07T12:59:46.955Z,3.00
2018-07-07T13:01:29.763Z,3.00
2018-07-07T13:03:06.970Z,2.25
2018-07-07T13:04:47.337Z,3.00
2018-07-07T13:06:24.273Z,2.00
2018-07-07T13:08:03.438Z,3.50
2018-07-07T13:09:44.803Z,3.00
2018-07-07T13:11:24.041Z,6.75
2018-07-07T13:13:01.884Z,3.25
2018-07-07T13:14:39.995Z,2.50
2018-07-07T13:16:17.450Z,3.00
2018-07-07T13:17:56.360Z,3.00
2018-07-07T13:19:33.203Z,3.75
2018-07-07T13:21:10.822Z,3.00
2018-07-07T13:22:50.734Z,3.00
2018-07-07T13:24:29.322Z,4.00
2018-07-07T13:26:07.700Z,3.00
2018-07-07T13:27:48.052Z,2.00
2018-07-07T13:29:27.021Z,2.50
2018-07-07T13:31:06.828Z,1.00
2018-07-07T13:32:44.598Z,3.00
2018-07-07T13:34:21.756Z,3.00
2018-07-07T13:35:58.452Z,2.50
2018-07-07T13:37:38.769Z,2.00
2018-07-07T13:39:17.510Z,2.75
2018-07-07T13:40:57.812Z,3.00
2018-07-07T13:44:00.528Z,5.00
2018-07-07T13:45:40.889Z,3.25
2018-07-07T13:47:20.087Z,2.25
2018-07-07T13:49:04.427Z,2.50
2018-07-07T13:50:42.748Z,2.75
2018-07-07T13:52:22.337Z,2.25
2018-07-07T13:54:01.361Z,3.00
2018-07-07T13:55:40.765Z,2.00
2018-07-07T13:57:18.538Z,2.25
2018-07-07T13:58:58.812Z,7.00
2018-07-07T14:00:38.422Z,2.50
2018-07-07T14:02:18.538Z,2.75
2018-07-07T14:03:58.543Z,3.50
2018-07-07T14:05:41.662Z,3.00
2018-07-07T14:07:21.467Z,2.75
2018-07-07T14:09:05.799Z,3.00
2018-07-07T14:10:46.951Z,3.00
2018-07-07T14:12:27.029Z,3.25
2018-07-07T14:14:08.235Z,2.25
2018-07-07T14:15:48.847Z,2.25
2018-07-07T14:17:32.473Z,2.75
2018-07-07T14:19:21.528Z,3.25
2018-07-07T14:21:00.428Z,3.50
2018-07-07T14:22:38.200Z,3.25
2018-07-07T14:24:18.809Z,4.00
2018-07-07T14:26:10.468Z,2.00
2018-07-07T14:27:47.642Z,3.50
2018-07-07T14:29:29.589Z,2.00
2018-07-07T14:31:06.739Z,3.75
2018-07-07T14:32:43.695Z,5.00
2018-07-07T14:34:23.726Z,3.00
2018-07-07T14:36:02.680Z,5.25
2018-07-07T14:37:40.858Z,3.00
2018-07-07T14:39:18.283Z,2.25
2018-07-07T14:43:07.918Z,3.00
2018-07-07T14:44:47.688Z,2.00
2018-07-07T14:46:31.198Z,2.00
2018-07-07T14:48:09.462Z,3.00
2018-07-07T14:49:49.705Z,3.25
2018-07-07T14:51:26.887Z,1.00
2018-07-07T14:53:07.817Z,3.50
2018-07-07T14:54:50.794Z,2.75
2018-07-07T14:56:29.663Z,2.00
2018-07-07T14:58:09.306Z,3.00
2018-07-07T14:59:46.401Z,2.00
2018-07-07T15:01:33.339Z,2.50
2018-07-07T15:03:10.757Z,2.50
2018-07-07T15:04:48.320Z,3.00
2018-07-07T15:06:29.520Z,2.25
2018-07-07T15:08:11.643Z,4.00
2018-07-07T15:09:56.526Z,2.25
2018-07-07T15:11:35.804Z,2.50
2018-07-07T15:13:15.340Z,3.00
2018-07-07T15:14:55.704Z,2.00
2018-07-07T15:16:44.678Z,4.00
2018-07-07T15:18:22.532Z,4.00
2018-07-07T15:20:08.532Z,2.50
2018-07-07T15:22:02.560Z,3.00
2018-07-07T15:23:58.371Z,3.00
2018-07-07T15:25:40.173Z,4.25
2018-07-07T15:27:25.806Z,3.00
2018-07-07T15:29:09.133Z,4.00
2018-07-07T15:31:04.261Z,3.00
2018-07-07T15:32:41.642Z,4.00
2018-07-07T15:34:33.498Z,2.75
2018-07-07T15:36:15.046Z,3.50
2018-07-07T15:37:57.408Z,2.25
2018-07-07T15:39:36.994Z,5.25
2018-07-07T15:41:20.008Z,3.00
2018-07-07T15:43:01.087Z,2.25
2018-07-07T15:44:38.532Z,3.00
2018-07-07T15:46:17.383Z,3.00
2018-07-07T15:48:12.580Z,3.00
2018-07-07T15:49:57.837Z,3.75
2018-07-07T15:51:39.469Z,8.75
2018-07-07T15:53:22.136Z,3.75
2018-07-07T15:55:02.775Z,4.00
2018-07-07T15:56:39.970Z,5.25
2018-07-07T15:58:18.755Z,3.00
2018-07-07T16:02:02.550Z,3.00
2018-07-07T16:03:42.230Z,2.00
2018-07-07T16:05:19.320Z,3.50
2018-07-07T16:06:58.018Z,2.25
2018-07-07T16:08:35.622Z,2.75
2018-07-07T16:10:13.816Z,2.00
2018-07-07T16:11:54.520Z,4.00
2018-07-07T16:13:43.751Z,3.75
2018-07-07T16:15:22.714Z,3.00
2018-07-07T16:17:01.628Z,3.00
2018-07-07T16:18:44.330Z,3.00
2018-07-07T16:20:22.361Z,2.00
2018-07-07T16:22:04.150Z,3.00
2018-07-07T16:23:48.527Z,4.00
2018-07-07T16:25:32.101Z,4.25
2018-07-07T16:27:16.476Z,7.00
2018-07-07T16:28:55.804Z,3.00
2018-07-07T16:30:35.612Z,4.00
2018-07-07T16:32:18.655Z,2.00
2018-07-07T16:34:05.575Z,3.00
2018-07-07T16:35:42.228Z,2.00
2018-07-07T16:37:20.837Z,2.00
2018-07-07T16:39:01.935Z,3.00
2018-07-07T16:40:39.233Z,2.50
2018-07-07T16:42:26.472Z,3.50
2018-07-07T16:44:06.667Z,2.00
2018-07-07T16:45:46.646Z,2.25
2018-07-07T16:47:23.314Z,2.75
2018-07-07T16:49:01.337Z,2.25
2018-07-07T16:50:38.743Z,2.00
2018-07-07T16:52:16.426Z,2.00
2018-07-07T16:53:53.685Z,5.50
2018-07-07T16:55:30.484Z,3.00
2018-07-07T16:57:08.515Z,11.00
2018-07-07T16:58:49.171Z,3.00
2018-07-07T17:00:30.000Z,3.50
2018-07-07T17:02:08.385Z,3.00
2018-07-07T17:03:48.340Z,3.00
2018-07-07T17:05:28.716Z,3.00
2018-07-07T17:07:06.702Z,2.00
2018-07-07T17:08:45.164Z,2.25
2018-07-07T17:10:27.765Z,3.00
2018-07-07T17:12:10.602Z,3.50
2018-07-07T17:13:59.424Z,3.00
2018-07-07T17:15:39.243Z,2.00
2018-07-07T17:17:19.489Z,5.25
2018-07-07T17:18:57.650Z,3.50
2018-07-07T17:20:38.235Z,2.50
2018-07-07T17:22:21.141Z,3.00
2018-07-07T17:24:07.293Z,3.00
2018-07-07T17:25:50.008Z,3.00
2018-07-07T17:27:35.203Z,2.75
2018-07-07T17:29:18.432Z,3.00
2018-07-07T17:31:08.532Z,1.75
2018-07-07T17:32:46.423Z,2.50
2018-07-07T17:34:27.498Z,2.50
2018-07-07T17:36:11.132Z,2.25
2018-07-07T17:37:51.476Z,2.50
2018-07-07T17:39:37.527Z,3.00
2018-07-07T17:41:27.492Z,1.75
2018-07-07T17:43:09.515Z,2.25
2018-07-07T17:44:50.585Z,2.75
2018-07-07T17:46:28.237Z,3.00
2018-07-07T17:48:08.754Z,3.00
2018-07-07T17:49:46.561Z,3.00
2018-07-07T17:51:25.593Z,2.00
2018-07-07T17:53:03.814Z,2.00
2018-07-07T17:54:41.803Z,2.00
2018-07-07T17:56:21.448Z,2.25
2018-07-07T17:58:02.584Z,1.50
2018-07-07T18:01:26.401Z,3.00
2018-07-07T18:03:06.237Z,3.75
2018-07-07T18:04:45.067Z,3.00
2018-07-07T18:06:21.902Z,3.00
2018-07-07T18:08:01.037Z,2.75
2018-07-07T18:09:38.322Z,2.75
2018-07-07T18:11:16.551Z,2.25
2018-07-07T18:12:55.055Z,2.00
2018-07-07T18:14:33.971Z,2.00
2018-07-07T18:16:12.698Z,1.00
2018-07-07T18:17:51.914Z,2.00
2018-07-07T18:19:29.269Z,2.50
2018-07-07T18:21:08.896Z,2.00
2018-07-07T18:22:54.201Z,1.75
2018-07-07T18:24:37.392Z,1.25
2018-07-07T18:26:17.280Z,2.00
2018-07-07T18:28:01.537Z,1.00
2018-07-07T18:29:39.729Z,2.00
2018-07-07T18:31:19.968Z,2.00
2018-07-07T18:32:59.526Z,2.75
2018-07-07T18:34:36.552Z,2.00
2018-07-07T18:36:16.904Z,2.25
2018-07-07T18:37:59.322Z,1.75
2018-07-07T18:39:38.864Z,2.25
2018-07-07T18:41:18.113Z,1.75
2018-07-07T18:42:59.631Z,1.25
2018-07-07T18:44:37.802Z,1.50
2018-07-07T18:46:20.352Z,2.00
2018-07-07T18:47:58.985Z,1.00
2018-07-07T18:51:28.886Z,1.00
2018-07-07T18:53:13.381Z,2.00
2018-07-07T18:54:55.125Z,2.50
2018-07-07T18:56:47.785Z,2.25
2018-07-07T18:58:27.567Z,2.00
2018-07-07T19:00:16.132Z,2.75
2018-07-07T19:01:56.780Z,1.75
2018-07-07T19:03:37.771Z,3.00
2018-07-07T19:05:20.234Z,2.00
2018-07-07T19:07:05.461Z,1.75
2018-07-07T19:08:50.427Z,3.00
2018-07-07T19:10:32.661Z,2.00
2018-07-07T19:12:13.233Z,2.00
2018-07-07T19:14:01.576Z,5.00
2018-07-07T19:15:56.326Z,2.00
2018-07-07T19:17:40.865Z,1.50
2018-07-07T19:19:30.456Z,3.00
2018-07-07T19:21:15.013Z,2.00
2018-07-07T19:22:59.291Z,2.00
2018-07-07T19:24:46.789Z,1.00
2018-07-07T19:26:36.599Z,1.00
2018-07-07T19:28:24.033Z,1.00
2018-07-07T19:30:13.510Z,1.75
2018-07-07T19:31:58.488Z,1.25
2018-07-07T19:33:44.875Z,1.75
2018-07-07T19:37:25.378Z,2.00
2018-07-07T19:39:05.556Z,2.00
2018-07-07T19:40:46.682Z,1.25
2018-07-07T19:42:30.216Z,2.00
2018-07-07T19:44:13.352Z,1.25
2018-07-07T19:45:53.188Z,1.25
2018-07-07T19:47:38.257Z,1.00
2018-07-07T19:49:26.455Z,2.25
2018-07-07T19:51:09.903Z,1.50
2018-07-07T19:52:50.167Z,2.00
2018-07-07T19:54:30.981Z,1.50
2018-07-07T19:56:14.684Z,2.00
2018-07-07T19:57:56.511Z,1.00
2018-07-07T19:59:42.481Z,2.00
2018-07-07T20:01:31.098Z,2.50
2018-07-07T20:05:27.559Z,2.00
2018-07-07T20:07:08.437Z,2.00
2018-07-07T20:08:50.925Z,2.25
2018-07-07T20:10:32.480Z,2.50
2018-07-07T20:12:18.480Z,1.25
2018-07-07T20:13:59.763Z,1.75
2018-07-07T20:15:54.832Z,1.75
2018-07-07T20:17:48.268Z,1.25
2018-07-07T20:21:50.350Z,2.00
2018-07-07T20:23:31.339Z,6.75
2018-07-07T20:25:13.457Z,3.25
2018-07-07T20:27:04.289Z,1.00
2018-07-07T20:28:54.554Z,2.00
2018-07-07T20:30:35.283Z,1.25
2018-07-07T20:32:20.509Z,5.00
2018-07-07T20:34:01.379Z,3.00
2018-07-07T20:35:45.457Z,2.00
2018-07-07T20:37:32.247Z,1.50
2018-07-07T20:39:11.301Z,1.50
2018-07-07T20:40:50.805Z,2.00
2018-07-07T20:42:30.722Z,2.00
2018-07-07T20:44:14.453Z,2.00
2018-07-07T20:45:57.232Z,1.00
2018-07-07T20:47:35.766Z,1.00
2018-07-07T20:49:14.654Z,2.00
2018-07-07T20:50:54.256Z,3.25
2018-07-07T20:52:36.652Z,2.00
2018-07-07T20:54:16.639Z,2.00
2018-07-07T20:56:01.253Z,2.00
2018-07-07T20:57:39.314Z,3.25
2018-07-07T20:59:26.407Z,3.00
2018-07-07T21:01:04.435Z,3.00
2018-07-07T21:02:51.327Z,2.00
2018-07-07T21:04:52.093Z,3.50
2018-07-07T21:06:33.978Z,2.25
2018-07-07T21:08:18.321Z,3.00
2018-07-07T21:10:05.887Z,2.00
2018-07-07T21:11:49.930Z,7.75
2018-07-07T21:13:36.375Z,7.75
2018-07-07T21:15:20.309Z,5.25
2018-07-07T21:17:03.874Z,6.00
2018-07-07T21:18:54.472Z,3.00
2018-07-07T21:20:42.630Z,3.00
2018-07-07T21:22:28.797Z,3.25
2018-07-07T21:24:08.213Z,3.00
2018-07-07T21:25:47.256Z,2.75
2018-07-07T21:27:28.720Z,2.75
2018-07-07T21:29:09.026Z,2.00
2018-07-07T21:30:52.066Z,3.00
2018-07-07T21:32:37.384Z,2.25
2018-07-07T21:34:18.936Z,2.00
2018-07-07T21:36:02.601Z,2.50
2018-07-07T21:37:46.401Z,10.00
2018-07-07T21:39:30.269Z,3.50
2018-07-07T21:41:11.263Z,4.00
2018-07-07T21:43:05.306Z,3.00
2018-07-07T21:44:44.746Z,3.00
2018-07-07T21:46:24.921Z,2.00
2018-07-07T21:48:10.640Z,2.75
2018-07-07T21:49:56.967Z,3.00
2018-07-07T21:51:38.310Z,3.50
2018-07-07T21:53:19.758Z,3.25
2018-07-07T21:54:59.214Z,3.75
2018-07-07T21:56:39.995Z,2.75
2018-07-07T21:58:28.664Z,3.75
2018-07-07T22:00:15.760Z,3.75
2018-07-07T22:02:02.417Z,5.75
2018-07-07T22:03:49.966Z,3.75
2018-07-07T22:05:34.727Z,3.75
2018-07-07T22:07:27.374Z,4.00
2018-07-07T22:09:08.138Z,4.00
2018-07-07T22:11:17.442Z,4.25
2018-07-07T22:13:12.404Z,3.00
2018-07-07T22:14:54.534Z,4.25
2018-07-07T22:16:35.755Z,3.00
2018-07-07T22:18:15.597Z,4.75
2018-07-07T22:19:52.064Z,5.50
2018-07-07T22:23:31.322Z,3.50
2018-07-07T22:25:11.231Z,2.75
2018-07-07T22:26:48.659Z,4.00